sensor_id;sensor_type;location;lat;lon;timestamp;P1;durP1;ratioP1;P2;durP2;ratioP2
54261;SDS011;40174;52.364;6.452;2024-02-21T00:01:14;20.70;;;6.20;;
54261;SDS011;40174;52.364;6.452;2024-02-21T00:03:42;19.55;;;5.53;;
54261;SDS011;40174;52.364;6.452;2024-02-21T00:06:09;18.85;;;7.20;;
54261;SDS011;40174;52.364;6.452;2024-02-21T00:08:35;24.75;;;6.03;;
54261;SDS011;40174;52.364;6.452;2024-02-21T00:11:02;18.17;;;6.15;;
54261;SDS011;40174;52.364;6.452;2024-02-21T00:13:29;14.35;;;6.70;;
54261;SDS011;40174;52.364;6.452;2024-02-21T00:15:56;18.42;;;5.80;;
54261;SDS011;40174;52.364;6.452;2024-02-21T00:18:22;23.50;;;6.55;;
54261;SDS011;40174;52.364;6.452;2024-02-21T00:20:50;17.02;;;6.07;;
54261;SDS011;40174;52.364;6.452;2024-02-21T00:23:17;17.25;;;5.70;;
54261;SDS011;40174;52.364;6.452;2024-02-21T00:25:44;19.58;;;5.95;;
54261;SDS011;40174;52.364;6.452;2024-02-21T00:28:11;13.52;;;5.32;;
54261;SDS011;40174;52.364;6.452;2024-02-21T00:30:38;18.55;;;6.05;;
54261;SDS011;40174;52.364;6.452;2024-02-21T00:33:04;13.98;;;5.15;;
54261;SDS011;40174;52.364;6.452;2024-02-21T00:35:31;22.30;;;6.82;;
54261;SDS011;40174;52.364;6.452;2024-02-21T00:37:59;13.88;;;5.03;;
54261;SDS011;40174;52.364;6.452;2024-02-21T00:40:25;17.27;;;4.88;;
54261;SDS011;40174;52.364;6.452;2024-02-21T00:42:52;17.65;;;5.70;;
54261;SDS011;40174;52.364;6.452;2024-02-21T00:45:19;20.85;;;6.00;;
54261;SDS011;40174;52.364;6.452;2024-02-21T00:47:45;18.55;;;5.80;;
54261;SDS011;40174;52.364;6.452;2024-02-21T00:50:12;17.65;;;5.90;;
54261;SDS011;40174;52.364;6.452;2024-02-21T00:52:38;15.90;;;4.75;;
54261;SDS011;40174;52.364;6.452;2024-02-21T00:55:07;14.02;;;4.65;;
54261;SDS011;40174;52.364;6.452;2024-02-21T00:57:34;14.55;;;5.07;;
54261;SDS011;40174;52.364;6.452;2024-02-21T01:00:01;16.65;;;5.28;;
54261;SDS011;40174;52.364;6.452;2024-02-21T01:02:28;14.98;;;4.78;;
54261;SDS011;40174;52.364;6.452;2024-02-21T01:04:56;14.02;;;5.63;;
54261;SDS011;40174;52.364;6.452;2024-02-21T01:07:23;15.10;;;4.22;;
54261;SDS011;40174;52.364;6.452;2024-02-21T01:09:49;14.02;;;5.03;;
54261;SDS011;40174;52.364;6.452;2024-02-21T01:12:18;13.07;;;4.93;;
54261;SDS011;40174;52.364;6.452;2024-02-21T01:14:45;17.98;;;4.60;;
54261;SDS011;40174;52.364;6.452;2024-02-21T01:17:12;16.60;;;4.53;;
54261;SDS011;40174;52.364;6.452;2024-02-21T01:19:39;17.85;;;4.95;;
54261;SDS011;40174;52.364;6.452;2024-02-21T01:22:06;14.57;;;4.35;;
54261;SDS011;40174;52.364;6.452;2024-02-21T01:24:33;15.98;;;5.13;;
54261;SDS011;40174;52.364;6.452;2024-02-21T01:26:59;9.40;;;3.95;;
54261;SDS011;40174;52.364;6.452;2024-02-21T01:29:27;14.50;;;4.70;;
54261;SDS011;40174;52.364;6.452;2024-02-21T01:31:54;12.77;;;4.20;;
54261;SDS011;40174;52.364;6.452;2024-02-21T01:34:20;13.00;;;5.45;;
54261;SDS011;40174;52.364;6.452;2024-02-21T01:36:47;15.43;;;4.43;;
54261;SDS011;40174;52.364;6.452;2024-02-21T01:39:13;13.90;;;3.75;;
54261;SDS011;40174;52.364;6.452;2024-02-21T01:41:40;9.50;;;4.00;;
54261;SDS011;40174;52.364;6.452;2024-02-21T01:44:07;13.10;;;3.83;;
54261;SDS011;40174;52.364;6.452;2024-02-21T01:46:34;11.75;;;4.47;;
54261;SDS011;40174;52.364;6.452;2024-02-21T01:49:01;11.38;;;3.83;;
54261;SDS011;40174;52.364;6.452;2024-02-21T01:51:28;12.88;;;3.92;;
54261;SDS011;40174;52.364;6.452;2024-02-21T01:53:55;12.60;;;4.65;;
54261;SDS011;40174;52.364;6.452;2024-02-21T01:56:22;9.85;;;3.85;;
54261;SDS011;40174;52.364;6.452;2024-02-21T01:58:50;11.27;;;3.92;;
54261;SDS011;40174;52.364;6.452;2024-02-21T02:01:17;13.15;;;3.47;;
54261;SDS011;40174;52.364;6.452;2024-02-21T02:03:46;16.42;;;3.95;;
54261;SDS011;40174;52.364;6.452;2024-02-21T02:06:13;5.82;;;3.17;;
54261;SDS011;40174;52.364;6.452;2024-02-21T02:08:40;9.48;;;3.10;;
54261;SDS011;40174;52.364;6.452;2024-02-21T02:11:08;13.57;;;3.90;;
54261;SDS011;40174;52.364;6.452;2024-02-21T02:13:34;8.20;;;3.83;;
54261;SDS011;40174;52.364;6.452;2024-02-21T02:16:01;8.02;;;3.33;;
54261;SDS011;40174;52.364;6.452;2024-02-21T02:18:28;7.90;;;2.85;;
54261;SDS011;40174;52.364;6.452;2024-02-21T02:20:56;7.75;;;3.03;;
54261;SDS011;40174;52.364;6.452;2024-02-21T02:23:25;12.35;;;3.85;;
54261;SDS011;40174;52.364;6.452;2024-02-21T02:25:52;8.38;;;3.40;;
54261;SDS011;40174;52.364;6.452;2024-02-21T02:28:18;9.05;;;3.35;;
54261;SDS011;40174;52.364;6.452;2024-02-21T02:30:45;12.13;;;2.95;;
54261;SDS011;40174;52.364;6.452;2024-02-21T02:33:12;8.80;;;3.50;;
54261;SDS011;40174;52.364;6.452;2024-02-21T02:35:39;8.27;;;3.22;;
54261;SDS011;40174;52.364;6.452;2024-02-21T02:38:06;8.70;;;3.30;;
54261;SDS011;40174;52.364;6.452;2024-02-21T02:40:34;8.90;;;3.05;;
54261;SDS011;40174;52.364;6.452;2024-02-21T02:43:01;7.00;;;3.28;;
54261;SDS011;40174;52.364;6.452;2024-02-21T02:45:28;11.38;;;3.53;;
54261;SDS011;40174;52.364;6.452;2024-02-21T02:47:55;8.80;;;2.97;;
54261;SDS011;40174;52.364;6.452;2024-02-21T02:50:22;8.98;;;3.35;;
54261;SDS011;40174;52.364;6.452;2024-02-21T02:52:49;11.00;;;3.25;;
54261;SDS011;40174;52.364;6.452;2024-02-21T02:55:15;11.93;;;3.22;;
54261;SDS011;40174;52.364;6.452;2024-02-21T02:57:44;16.30;;;3.63;;
54261;SDS011;40174;52.364;6.452;2024-02-21T03:00:11;5.90;;;2.72;;
54261;SDS011;40174;52.364;6.452;2024-02-21T03:02:39;6.35;;;2.83;;
54261;SDS011;40174;52.364;6.452;2024-02-21T03:05:12;8.00;;;3.50;;
54261;SDS011;40174;52.364;6.452;2024-02-21T03:07:40;12.68;;;3.63;;
54261;SDS011;40174;52.364;6.452;2024-02-21T03:10:07;11.50;;;3.47;;
54261;SDS011;40174;52.364;6.452;2024-02-21T03:12:34;6.63;;;2.58;;
54261;SDS011;40174;52.364;6.452;2024-02-21T03:15:02;8.57;;;3.65;;
54261;SDS011;40174;52.364;6.452;2024-02-21T03:17:29;13.93;;;3.58;;
54261;SDS011;40174;52.364;6.452;2024-02-21T03:19:56;9.80;;;3.17;;
54261;SDS011;40174;52.364;6.452;2024-02-21T03:22:24;13.32;;;3.45;;
54261;SDS011;40174;52.364;6.452;2024-02-21T03:24:50;16.50;;;4.13;;
54261;SDS011;40174;52.364;6.452;2024-02-21T03:27:17;13.48;;;3.70;;
54261;SDS011;40174;52.364;6.452;2024-02-21T03:29:43;14.98;;;4.88;;
54261;SDS011;40174;52.364;6.452;2024-02-21T03:32:11;9.15;;;3.55;;
54261;SDS011;40174;52.364;6.452;2024-02-21T03:34:38;10.00;;;3.88;;
54261;SDS011;40174;52.364;6.452;2024-02-21T03:37:05;12.32;;;4.18;;
54261;SDS011;40174;52.364;6.452;2024-02-21T03:39:31;12.52;;;3.50;;
54261;SDS011;40174;52.364;6.452;2024-02-21T03:41:58;13.80;;;4.38;;
54261;SDS011;40174;52.364;6.452;2024-02-21T03:44:29;14.98;;;4.68;;
54261;SDS011;40174;52.364;6.452;2024-02-21T03:46:56;14.90;;;4.25;;
54261;SDS011;40174;52.364;6.452;2024-02-21T03:49:24;15.00;;;3.92;;
54261;SDS011;40174;52.364;6.452;2024-02-21T03:51:50;13.68;;;3.70;;
54261;SDS011;40174;52.364;6.452;2024-02-21T03:54:17;17.40;;;3.75;;
54261;SDS011;40174;52.364;6.452;2024-02-21T03:56:44;12.50;;;3.60;;
54261;SDS011;40174;52.364;6.452;2024-02-21T03:59:12;11.07;;;4.05;;
54261;SDS011;40174;52.364;6.452;2024-02-21T04:01:39;13.48;;;4.30;;
54261;SDS011;40174;52.364;6.452;2024-02-21T04:04:06;14.63;;;4.13;;
54261;SDS011;40174;52.364;6.452;2024-02-21T04:06:34;12.77;;;4.40;;
54261;SDS011;40174;52.364;6.452;2024-02-21T04:09:00;8.82;;;4.03;;
54261;SDS011;40174;52.364;6.452;2024-02-21T04:11:27;11.80;;;3.78;;
54261;SDS011;40174;52.364;6.452;2024-02-21T04:13:54;13.88;;;3.88;;
54261;SDS011;40174;52.364;6.452;2024-02-21T04:16:20;15.65;;;3.85;;
54261;SDS011;40174;52.364;6.452;2024-02-21T04:18:47;10.55;;;4.05;;
54261;SDS011;40174;52.364;6.452;2024-02-21T04:21:16;11.95;;;3.60;;
54261;SDS011;40174;52.364;6.452;2024-02-21T04:23:45;13.48;;;3.53;;
54261;SDS011;40174;52.364;6.452;2024-02-21T04:26:11;10.57;;;3.22;;
54261;SDS011;40174;52.364;6.452;2024-02-21T04:28:38;10.10;;;3.20;;
54261;SDS011;40174;52.364;6.452;2024-02-21T04:31:05;11.25;;;3.78;;
54261;SDS011;40174;52.364;6.452;2024-02-21T04:33:31;8.48;;;3.50;;
54261;SDS011;40174;52.364;6.452;2024-02-21T04:35:58;7.40;;;3.25;;
54261;SDS011;40174;52.364;6.452;2024-02-21T04:38:26;14.32;;;3.80;;
54261;SDS011;40174;52.364;6.452;2024-02-21T04:40:55;14.57;;;4.13;;
54261;SDS011;40174;52.364;6.452;2024-02-21T04:43:23;14.30;;;3.55;;
54261;SDS011;40174;52.364;6.452;2024-02-21T04:45:50;9.45;;;3.45;;
54261;SDS011;40174;52.364;6.452;2024-02-21T04:48:18;10.63;;;3.60;;
54261;SDS011;40174;52.364;6.452;2024-02-21T04:50:45;8.23;;;2.92;;
54261;SDS011;40174;52.364;6.452;2024-02-21T04:53:12;11.10;;;3.63;;
54261;SDS011;40174;52.364;6.452;2024-02-21T04:55:38;12.85;;;4.05;;
54261;SDS011;40174;52.364;6.452;2024-02-21T04:58:07;6.93;;;3.03;;
54261;SDS011;40174;52.364;6.452;2024-02-21T05:00:34;13.70;;;3.90;;
54261;SDS011;40174;52.364;6.452;2024-02-21T05:03:00;8.63;;;3.40;;
54261;SDS011;40174;52.364;6.452;2024-02-21T05:05:27;11.23;;;3.83;;
54261;SDS011;40174;52.364;6.452;2024-02-21T05:07:54;12.45;;;4.65;;
54261;SDS011;40174;52.364;6.452;2024-02-21T05:10:21;21.90;;;4.13;;
54261;SDS011;40174;52.364;6.452;2024-02-21T05:12:47;13.80;;;3.78;;
54261;SDS011;40174;52.364;6.452;2024-02-21T05:15:16;9.73;;;3.75;;
54261;SDS011;40174;52.364;6.452;2024-02-21T05:17:42;12.85;;;4.50;;
54261;SDS011;40174;52.364;6.452;2024-02-21T05:20:09;14.02;;;3.78;;
54261;SDS011;40174;52.364;6.452;2024-02-21T05:22:36;12.18;;;3.97;;
54261;SDS011;40174;52.364;6.452;2024-02-21T05:25:03;16.20;;;5.03;;
54261;SDS011;40174;52.364;6.452;2024-02-21T05:27:31;15.75;;;5.13;;
54261;SDS011;40174;52.364;6.452;2024-02-21T05:29:57;18.42;;;4.95;;
54261;SDS011;40174;52.364;6.452;2024-02-21T05:32:26;15.80;;;4.53;;
54261;SDS011;40174;52.364;6.452;2024-02-21T05:34:53;13.32;;;4.93;;
54261;SDS011;40174;52.364;6.452;2024-02-21T05:37:20;12.35;;;5.15;;
54261;SDS011;40174;52.364;6.452;2024-02-21T05:39:46;13.52;;;4.60;;
54261;SDS011;40174;52.364;6.452;2024-02-21T05:42:14;10.63;;;4.85;;
54261;SDS011;40174;52.364;6.452;2024-02-21T05:44:40;14.63;;;6.20;;
54261;SDS011;40174;52.364;6.452;2024-02-21T05:47:07;15.73;;;4.50;;
54261;SDS011;40174;52.364;6.452;2024-02-21T05:49:36;19.02;;;5.70;;
54261;SDS011;40174;52.364;6.452;2024-02-21T05:52:03;21.65;;;5.18;;
54261;SDS011;40174;52.364;6.452;2024-02-21T05:54:31;14.60;;;4.82;;
54261;SDS011;40174;52.364;6.452;2024-02-21T05:56:57;17.17;;;5.35;;
54261;SDS011;40174;52.364;6.452;2024-02-21T05:59:24;15.07;;;4.68;;
54261;SDS011;40174;52.364;6.452;2024-02-21T06:01:54;13.82;;;5.35;;
54261;SDS011;40174;52.364;6.452;2024-02-21T06:04:22;17.08;;;5.15;;
54261;SDS011;40174;52.364;6.452;2024-02-21T06:06:50;18.05;;;4.97;;
54261;SDS011;40174;52.364;6.452;2024-02-21T06:09:17;17.08;;;5.32;;
54261;SDS011;40174;52.364;6.452;2024-02-21T06:11:44;16.88;;;4.75;;
54261;SDS011;40174;52.364;6.452;2024-02-21T06:14:11;12.02;;;4.25;;
54261;SDS011;40174;52.364;6.452;2024-02-21T06:16:38;19.23;;;4.53;;
54261;SDS011;40174;52.364;6.452;2024-02-21T06:19:04;12.45;;;4.90;;
54261;SDS011;40174;52.364;6.452;2024-02-21T06:21:31;11.88;;;4.72;;
54261;SDS011;40174;52.364;6.452;2024-02-21T06:23:59;13.32;;;4.88;;
54261;SDS011;40174;52.364;6.452;2024-02-21T06:26:25;14.98;;;4.88;;
54261;SDS011;40174;52.364;6.452;2024-02-21T06:28:52;20.83;;;5.40;;
54261;SDS011;40174;52.364;6.452;2024-02-21T06:31:19;9.77;;;3.63;;
54261;SDS011;40174;52.364;6.452;2024-02-21T06:33:45;27.98;;;5.90;;
54261;SDS011;40174;52.364;6.452;2024-02-21T06:36:12;13.35;;;5.00;;
54261;SDS011;40174;52.364;6.452;2024-02-21T06:38:39;15.90;;;5.72;;
54261;SDS011;40174;52.364;6.452;2024-02-21T06:41:07;11.00;;;4.47;;
54261;SDS011;40174;52.364;6.452;2024-02-21T06:43:41;15.77;;;4.15;;
54261;SDS011;40174;52.364;6.452;2024-02-21T06:46:07;10.73;;;4.30;;
54261;SDS011;40174;52.364;6.452;2024-02-21T06:48:34;10.32;;;4.45;;
54261;SDS011;40174;52.364;6.452;2024-02-21T06:51:00;10.95;;;3.53;;
54261;SDS011;40174;52.364;6.452;2024-02-21T06:53:28;13.93;;;4.80;;
54261;SDS011;40174;52.364;6.452;2024-02-21T06:55:55;12.23;;;4.65;;
54261;SDS011;40174;52.364;6.452;2024-02-21T06:58:23;15.85;;;4.63;;
54261;SDS011;40174;52.364;6.452;2024-02-21T07:00:49;12.52;;;4.50;;
54261;SDS011;40174;52.364;6.452;2024-02-21T07:03:16;11.38;;;4.63;;
54261;SDS011;40174;52.364;6.452;2024-02-21T07:05:43;16.52;;;5.35;;
54261;SDS011;40174;52.364;6.452;2024-02-21T07:08:09;17.23;;;5.35;;
54261;SDS011;40174;52.364;6.452;2024-02-21T07:10:36;12.35;;;4.18;;
54261;SDS011;40174;52.364;6.452;2024-02-21T07:13:02;14.77;;;5.10;;
54261;SDS011;40174;52.364;6.452;2024-02-21T07:15:31;14.43;;;4.55;;
54261;SDS011;40174;52.364;6.452;2024-02-21T07:17:58;17.55;;;5.10;;
54261;SDS011;40174;52.364;6.452;2024-02-21T07:20:25;11.30;;;4.85;;
54261;SDS011;40174;52.364;6.452;2024-02-21T07:22:51;14.18;;;4.43;;
54261;SDS011;40174;52.364;6.452;2024-02-21T07:25:18;12.10;;;4.22;;
54261;SDS011;40174;52.364;6.452;2024-02-21T07:27:45;19.48;;;5.20;;
54261;SDS011;40174;52.364;6.452;2024-02-21T07:30:12;15.32;;;5.10;;
54261;SDS011;40174;52.364;6.452;2024-02-21T07:32:40;13.95;;;4.85;;
54261;SDS011;40174;52.364;6.452;2024-02-21T07:35:07;16.48;;;4.68;;
54261;SDS011;40174;52.364;6.452;2024-02-21T07:37:36;13.93;;;4.53;;
54261;SDS011;40174;52.364;6.452;2024-02-21T07:40:03;14.63;;;4.32;;
54261;SDS011;40174;52.364;6.452;2024-02-21T07:42:30;16.15;;;4.65;;
54261;SDS011;40174;52.364;6.452;2024-02-21T07:44:57;11.57;;;4.00;;
54261;SDS011;40174;52.364;6.452;2024-02-21T07:47:23;13.45;;;4.50;;
54261;SDS011;40174;52.364;6.452;2024-02-21T07:49:51;16.08;;;4.38;;
54261;SDS011;40174;52.364;6.452;2024-02-21T07:52:18;11.18;;;4.45;;
54261;SDS011;40174;52.364;6.452;2024-02-21T07:54:44;14.30;;;5.00;;
54261;SDS011;40174;52.364;6.452;2024-02-21T07:57:11;14.77;;;4.85;;
54261;SDS011;40174;52.364;6.452;2024-02-21T07:59:37;14.27;;;3.95;;
54261;SDS011;40174;52.364;6.452;2024-02-21T08:02:04;11.27;;;4.18;;
54261;SDS011;40174;52.364;6.452;2024-02-21T08:04:31;12.48;;;3.97;;
54261;SDS011;40174;52.364;6.452;2024-02-21T08:06:59;7.97;;;4.07;;
54261;SDS011;40174;52.364;6.452;2024-02-21T08:09:29;12.60;;;3.83;;
54261;SDS011;40174;52.364;6.452;2024-02-21T08:11:56;17.58;;;4.22;;
54261;SDS011;40174;52.364;6.452;2024-02-21T08:14:23;13.48;;;4.75;;
54261;SDS011;40174;52.364;6.452;2024-02-21T08:16:50;13.68;;;3.67;;
54261;SDS011;40174;52.364;6.452;2024-02-21T08:19:18;10.10;;;3.45;;
54261;SDS011;40174;52.364;6.452;2024-02-21T08:21:45;7.63;;;3.17;;
54261;SDS011;40174;52.364;6.452;2024-02-21T08:24:14;8.65;;;3.38;;
54261;SDS011;40174;52.364;6.452;2024-02-21T08:26:41;7.05;;;2.90;;
54261;SDS011;40174;52.364;6.452;2024-02-21T08:29:07;13.88;;;3.60;;
54261;SDS011;40174;52.364;6.452;2024-02-21T08:31:34;12.63;;;3.67;;
54261;SDS011;40174;52.364;6.452;2024-02-21T08:34:00;10.70;;;3.65;;
54261;SDS011;40174;52.364;6.452;2024-02-21T08:36:28;11.20;;;3.63;;
54261;SDS011;40174;52.364;6.452;2024-02-21T08:38:55;10.63;;;3.50;;
54261;SDS011;40174;52.364;6.452;2024-02-21T08:41:24;12.45;;;3.92;;
54261;SDS011;40174;52.364;6.452;2024-02-21T08:43:51;10.63;;;3.40;;
54261;SDS011;40174;52.364;6.452;2024-02-21T08:46:19;10.85;;;2.95;;
54261;SDS011;40174;52.364;6.452;2024-02-21T08:48:45;12.80;;;3.55;;
54261;SDS011;40174;52.364;6.452;2024-02-21T08:51:13;10.50;;;4.28;;
54261;SDS011;40174;52.364;6.452;2024-02-21T08:53:39;12.73;;;4.18;;
54261;SDS011;40174;52.364;6.452;2024-02-21T08:56:06;9.43;;;3.65;;
54261;SDS011;40174;52.364;6.452;2024-02-21T08:58:35;11.35;;;3.53;;
54261;SDS011;40174;52.364;6.452;2024-02-21T09:01:03;14.55;;;4.88;;
54261;SDS011;40174;52.364;6.452;2024-02-21T09:03:30;9.40;;;3.13;;
54261;SDS011;40174;52.364;6.452;2024-02-21T09:05:57;16.83;;;3.83;;
54261;SDS011;40174;52.364;6.452;2024-02-21T09:08:24;14.60;;;3.85;;
54261;SDS011;40174;52.364;6.452;2024-02-21T09:10:51;16.85;;;4.03;;
54261;SDS011;40174;52.364;6.452;2024-02-21T09:13:17;10.43;;;4.07;;
54261;SDS011;40174;52.364;6.452;2024-02-21T09:15:46;10.25;;;3.65;;
54261;SDS011;40174;52.364;6.452;2024-02-21T09:18:13;13.88;;;3.92;;
54261;SDS011;40174;52.364;6.452;2024-02-21T09:20:40;8.05;;;3.25;;
54261;SDS011;40174;52.364;6.452;2024-02-21T09:23:07;12.98;;;4.60;;
54261;SDS011;40174;52.364;6.452;2024-02-21T09:25:33;13.68;;;3.78;;
54261;SDS011;40174;52.364;6.452;2024-02-21T09:28:00;10.90;;;4.13;;
54261;SDS011;40174;52.364;6.452;2024-02-21T09:30:27;10.27;;;3.35;;
54261;SDS011;40174;52.364;6.452;2024-02-21T09:32:56;7.97;;;3.08;;
54261;SDS011;40174;52.364;6.452;2024-02-21T09:35:24;14.20;;;3.38;;
54261;SDS011;40174;52.364;6.452;2024-02-21T09:37:51;13.15;;;4.15;;
54261;SDS011;40174;52.364;6.452;2024-02-21T09:40:18;13.25;;;4.25;;
54261;SDS011;40174;52.364;6.452;2024-02-21T09:42:46;12.00;;;3.90;;
54261;SDS011;40174;52.364;6.452;2024-02-21T09:45:15;10.90;;;3.38;;
54261;SDS011;40174;52.364;6.452;2024-02-21T09:47:50;11.27;;;3.58;;
54261;SDS011;40174;52.364;6.452;2024-02-21T09:50:29;11.75;;;3.30;;
54261;SDS011;40174;52.364;6.452;2024-02-21T09:52:58;14.13;;;3.47;;
54261;SDS011;40174;52.364;6.452;2024-02-21T09:55:27;11.45;;;3.97;;
54261;SDS011;40174;52.364;6.452;2024-02-21T09:57:57;8.18;;;3.55;;
54261;SDS011;40174;52.364;6.452;2024-02-21T10:00:25;9.68;;;3.03;;
54261;SDS011;40174;52.364;6.452;2024-02-21T10:02:52;12.75;;;3.50;;
54261;SDS011;40174;52.364;6.452;2024-02-21T10:05:20;14.27;;;3.42;;
54261;SDS011;40174;52.364;6.452;2024-02-21T10:07:49;9.90;;;3.35;;
54261;SDS011;40174;52.364;6.452;2024-02-21T10:10:17;11.77;;;3.80;;
54261;SDS011;40174;52.364;6.452;2024-02-21T10:12:49;11.52;;;3.90;;
54261;SDS011;40174;52.364;6.452;2024-02-21T10:15:19;8.10;;;3.40;;
54261;SDS011;40174;52.364;6.452;2024-02-21T10:17:46;13.65;;;4.43;;
54261;SDS011;40174;52.364;6.452;2024-02-21T10:20:13;11.75;;;3.50;;
54261;SDS011;40174;52.364;6.452;2024-02-21T10:22:42;9.98;;;3.70;;
54261;SDS011;40174;52.364;6.452;2024-02-21T10:25:09;10.20;;;3.45;;
54261;SDS011;40174;52.364;6.452;2024-02-21T10:27:37;8.85;;;3.53;;
54261;SDS011;40174;52.364;6.452;2024-02-21T10:30:04;17.13;;;3.85;;
54261;SDS011;40174;52.364;6.452;2024-02-21T10:32:34;7.97;;;3.47;;
54261;SDS011;40174;52.364;6.452;2024-02-21T10:35:01;12.70;;;3.20;;
54261;SDS011;40174;52.364;6.452;2024-02-21T10:37:29;10.48;;;3.20;;
54261;SDS011;40174;52.364;6.452;2024-02-21T10:39:58;11.95;;;4.03;;
54261;SDS011;40174;52.364;6.452;2024-02-21T10:42:26;11.15;;;3.35;;
54261;SDS011;40174;52.364;6.452;2024-02-21T10:44:57;14.68;;;3.83;;
54261;SDS011;40174;52.364;6.452;2024-02-21T10:47:29;8.23;;;2.72;;
54261;SDS011;40174;52.364;6.452;2024-02-21T10:50:01;7.90;;;2.60;;
54261;SDS011;40174;52.364;6.452;2024-02-21T10:52:31;11.48;;;2.90;;
54261;SDS011;40174;52.364;6.452;2024-02-21T10:55:09;7.97;;;2.80;;
54261;SDS011;40174;52.364;6.452;2024-02-21T10:57:38;10.68;;;2.85;;
54261;SDS011;40174;52.364;6.452;2024-02-21T11:00:05;10.00;;;2.50;;
54261;SDS011;40174;52.364;6.452;2024-02-21T11:02:35;6.53;;;2.42;;
54261;SDS011;40174;52.364;6.452;2024-02-21T11:05:03;7.57;;;2.10;;
54261;SDS011;40174;52.364;6.452;2024-02-21T11:07:30;5.85;;;2.22;;
54261;SDS011;40174;52.364;6.452;2024-02-21T11:09:58;7.47;;;2.78;;
54261;SDS011;40174;52.364;6.452;2024-02-21T11:12:26;6.15;;;2.38;;
54261;SDS011;40174;52.364;6.452;2024-02-21T11:15:03;7.13;;;3.00;;
54261;SDS011;40174;52.364;6.452;2024-02-21T11:17:30;8.73;;;2.60;;
54261;SDS011;40174;52.364;6.452;2024-02-21T11:19:57;5.75;;;2.13;;
54261;SDS011;40174;52.364;6.452;2024-02-21T11:22:26;9.48;;;2.95;;
54261;SDS011;40174;52.364;6.452;2024-02-21T11:25:05;7.55;;;2.45;;
54261;SDS011;40174;52.364;6.452;2024-02-21T11:27:35;6.25;;;2.22;;
54261;SDS011;40174;52.364;6.452;2024-02-21T11:30:03;4.63;;;2.00;;
54261;SDS011;40174;52.364;6.452;2024-02-21T11:32:31;4.35;;;2.10;;
54261;SDS011;40174;52.364;6.452;2024-02-21T11:34:58;7.55;;;2.53;;
54261;SDS011;40174;52.364;6.452;2024-02-21T11:37:26;4.32;;;1.77;;
54261;SDS011;40174;52.364;6.452;2024-02-21T11:39:54;7.50;;;2.47;;
54261;SDS011;40174;52.364;6.452;2024-02-21T11:42:21;2.83;;;1.48;;
54261;SDS011;40174;52.364;6.452;2024-02-21T11:44:49;4.32;;;1.98;;
54261;SDS011;40174;52.364;6.452;2024-02-21T11:47:16;4.72;;;2.05;;
54261;SDS011;40174;52.364;6.452;2024-02-21T11:49:43;5.78;;;1.48;;
54261;SDS011;40174;52.364;6.452;2024-02-21T11:52:12;6.10;;;2.05;;
54261;SDS011;40174;52.364;6.452;2024-02-21T11:54:40;4.57;;;1.77;;
54261;SDS011;40174;52.364;6.452;2024-02-21T11:57:07;5.25;;;1.50;;
54261;SDS011;40174;52.364;6.452;2024-02-21T11:59:34;6.60;;;1.50;;
54261;SDS011;40174;52.364;6.452;2024-02-21T12:02:02;5.25;;;1.80;;
54261;SDS011;40174;52.364;6.452;2024-02-21T12:04:29;5.90;;;1.88;;
54261;SDS011;40174;52.364;6.452;2024-02-21T12:06:56;3.53;;;1.25;;
54261;SDS011;40174;52.364;6.452;2024-02-21T12:09:24;6.43;;;2.08;;
54261;SDS011;40174;52.364;6.452;2024-02-21T12:11:57;8.20;;;1.98;;
54261;SDS011;40174;52.364;6.452;2024-02-21T12:14:24;4.70;;;2.13;;
54261;SDS011;40174;52.364;6.452;2024-02-21T12:16:52;6.43;;;2.50;;
54261;SDS011;40174;52.364;6.452;2024-02-21T12:19:20;4.75;;;1.85;;
54261;SDS011;40174;52.364;6.452;2024-02-21T12:21:47;6.65;;;1.88;;
54261;SDS011;40174;52.364;6.452;2024-02-21T12:24:15;5.80;;;2.53;;
54261;SDS011;40174;52.364;6.452;2024-02-21T12:26:45;7.45;;;2.50;;
54261;SDS011;40174;52.364;6.452;2024-02-21T12:29:12;6.35;;;2.05;;
54261;SDS011;40174;52.364;6.452;2024-02-21T12:31:38;7.63;;;2.33;;
54261;SDS011;40174;52.364;6.452;2024-02-21T12:34:05;6.07;;;2.08;;
54261;SDS011;40174;52.364;6.452;2024-02-21T12:36:35;6.53;;;2.75;;
54261;SDS011;40174;52.364;6.452;2024-02-21T12:39:06;6.15;;;2.17;;
54261;SDS011;40174;52.364;6.452;2024-02-21T12:41:34;6.53;;;2.75;;
54261;SDS011;40174;52.364;6.452;2024-02-21T12:44:03;8.30;;;2.70;;
54261;SDS011;40174;52.364;6.452;2024-02-21T12:46:32;4.18;;;2.35;;
54261;SDS011;40174;52.364;6.452;2024-02-21T12:48:58;5.32;;;1.75;;
54261;SDS011;40174;52.364;6.452;2024-02-21T12:51:25;5.38;;;1.77;;
54261;SDS011;40174;52.364;6.452;2024-02-21T12:53:53;8.60;;;2.33;;
54261;SDS011;40174;52.364;6.452;2024-02-21T12:56:20;5.35;;;2.22;;
54261;SDS011;40174;52.364;6.452;2024-02-21T12:58:51;8.25;;;2.05;;
54261;SDS011;40174;52.364;6.452;2024-02-21T13:01:17;4.03;;;2.22;;
54261;SDS011;40174;52.364;6.452;2024-02-21T13:03:44;8.73;;;2.92;;
54261;SDS011;40174;52.364;6.452;2024-02-21T13:06:11;9.02;;;2.80;;
54261;SDS011;40174;52.364;6.452;2024-02-21T13:08:38;8.18;;;2.17;;
54261;SDS011;40174;52.364;6.452;2024-02-21T13:11:07;7.70;;;2.45;;
54261;SDS011;40174;52.364;6.452;2024-02-21T13:13:33;5.32;;;2.33;;
54261;SDS011;40174;52.364;6.452;2024-02-21T13:16:00;5.75;;;2.28;;
54261;SDS011;40174;52.364;6.452;2024-02-21T13:18:28;7.15;;;2.65;;
54261;SDS011;40174;52.364;6.452;2024-02-21T13:20:55;8.77;;;2.67;;
54261;SDS011;40174;52.364;6.452;2024-02-21T13:23:22;6.22;;;2.20;;
54261;SDS011;40174;52.364;6.452;2024-02-21T13:25:48;5.28;;;2.10;;
54261;SDS011;40174;52.364;6.452;2024-02-21T13:28:17;4.05;;;2.08;;
54261;SDS011;40174;52.364;6.452;2024-02-21T13:30:43;7.78;;;2.20;;
54261;SDS011;40174;52.364;6.452;2024-02-21T13:33:10;6.88;;;2.35;;
54261;SDS011;40174;52.364;6.452;2024-02-21T13:35:37;11.90;;;2.75;;
54261;SDS011;40174;52.364;6.452;2024-02-21T13:38:04;7.00;;;2.28;;
54261;SDS011;40174;52.364;6.452;2024-02-21T13:40:30;7.78;;;2.60;;
54261;SDS011;40174;52.364;6.452;2024-02-21T13:42:57;9.40;;;2.13;;
54261;SDS011;40174;52.364;6.452;2024-02-21T13:45:25;12.23;;;2.58;;
54261;SDS011;40174;52.364;6.452;2024-02-21T13:47:52;3.63;;;1.98;;
54261;SDS011;40174;52.364;6.452;2024-02-21T13:50:19;5.38;;;2.45;;
54261;SDS011;40174;52.364;6.452;2024-02-21T13:52:54;5.93;;;2.03;;
54261;SDS011;40174;52.364;6.452;2024-02-21T13:55:20;10.93;;;2.47;;
54261;SDS011;40174;52.364;6.452;2024-02-21T13:57:48;7.88;;;2.00;;
54261;SDS011;40174;52.364;6.452;2024-02-21T14:00:15;12.48;;;3.03;;
54261;SDS011;40174;52.364;6.452;2024-02-21T14:02:46;5.65;;;2.17;;
54261;SDS011;40174;52.364;6.452;2024-02-21T14:05:13;7.30;;;2.33;;
54261;SDS011;40174;52.364;6.452;2024-02-21T14:07:39;7.68;;;2.10;;
54261;SDS011;40174;52.364;6.452;2024-02-21T14:10:07;5.13;;;1.95;;
54261;SDS011;40174;52.364;6.452;2024-02-21T14:12:35;9.35;;;2.00;;
54261;SDS011;40174;52.364;6.452;2024-02-21T14:15:02;8.98;;;2.53;;
54261;SDS011;40174;52.364;6.452;2024-02-21T14:17:28;10.23;;;3.13;;
54261;SDS011;40174;52.364;6.452;2024-02-21T14:19:56;9.10;;;2.20;;
54261;SDS011;40174;52.364;6.452;2024-02-21T14:22:23;6.40;;;2.05;;
54261;SDS011;40174;52.364;6.452;2024-02-21T14:24:50;7.43;;;2.55;;
54261;SDS011;40174;52.364;6.452;2024-02-21T14:27:17;8.48;;;2.35;;
54261;SDS011;40174;52.364;6.452;2024-02-21T14:29:43;7.53;;;2.55;;
54261;SDS011;40174;52.364;6.452;2024-02-21T14:32:10;4.80;;;2.00;;
54261;SDS011;40174;52.364;6.452;2024-02-21T14:34:39;4.57;;;2.42;;
54261;SDS011;40174;52.364;6.452;2024-02-21T14:37:07;10.80;;;2.15;;
54261;SDS011;40174;52.364;6.452;2024-02-21T14:39:34;6.80;;;2.00;;
54261;SDS011;40174;52.364;6.452;2024-02-21T14:42:01;5.93;;;2.08;;